Time;durP1;ratioP1;P1;durP2;ratioP2;P2;SDS_P1;SDS_P2;PMS_P1;PMS_P2;Temp;Humidity;BMP_temperature;BMP_pressure;BME280_temperature;BME280_humidity;BME280_pressure;Samples;Min_cycle;Max_cycle;Signal;HPM_P1;HPM_P2
2022/01/15 00:00:28;;;;;;;60.55;9.32;;;5.10;99.90;;;;;;5074429;28;20025;-78
2022/01/15 00:02:55;;;;;;;58.80;9.07;;;5.00;99.90;;;;;;5074497;28;20017;-78
2022/01/15 00:05:22;;;;;;;56.63;9.50;;;4.90;99.90;;;;;;5074659;28;20040;-78
2022/01/15 00:07:48;;;;;;;56.95;9.70;;;4.90;99.90;;;;;;5074948;28;20017;-78
2022/01/15 00:10:16;;;;;;;55.15;8.27;;;4.90;99.90;;;;;;5075314;28;20500;-78
2022/01/15 00:12:42;;;;;;;47.38;7.22;;;4.90;99.90;;;;;;5075160;28;20028;-78
2022/01/15 00:15:13;;;;;;;39.20;6.93;;;4.90;99.90;;;;;;5074942;28;20150;-77
2022/01/15 00:17:48;;;;;;;52.17;8.63;;;4.90;99.90;;;;;;5073289;28;20028;-79
2022/01/15 00:20:19;;;;;;;51.97;8.13;;;4.90;99.90;;;;;;5074237;28;20028;-76
2022/01/15 00:22:47;;;;;;;47.70;7.75;;;4.90;99.90;;;;;;5073604;28;20024;-76
2022/01/15 00:25:14;;;;;;;57.88;9.77;;;4.90;99.90;;;;;;5074469;28;20028;-77
2022/01/15 00:27:40;;;;;;;43.20;8.57;;;4.90;99.90;;;;;;5073664;28;20025;-77
2022/01/15 00:30:06;;;;;;;62.95;11.57;;;4.90;99.90;;;;;;5074076;28;20070;-77
2022/01/15 00:32:32;;;;;;;50.33;9.45;;;4.90;99.90;;;;;;5075937;28;20025;-77
2022/01/15 00:35:00;;;;;;;48.22;8.38;;;4.80;99.90;;;;;;5076386;28;20069;-77
2022/01/15 00:37:26;;;;;;;54.80;10.52;;;4.80;99.90;;;;;;5078158;28;20024;-76
2022/01/15 00:39:51;;;;;;;49.67;8.65;;;4.80;99.90;;;;;;5076640;28;20082;-76
2022/01/15 00:42:18;;;;;;;48.20;7.97;;;4.80;99.90;;;;;;5073624;28;20028;-77
2022/01/15 00:44:48;;;;;;;65.38;9.82;;;4.80;99.90;;;;;;5077593;28;20021;-77
2022/01/15 00:47:14;;;;;;;46.72;7.78;;;4.80;99.90;;;;;;5075001;28;20051;-77
2022/01/15 00:49:40;;;;;;;51.83;8.15;;;4.80;99.90;;;;;;5076691;28;20021;-77
2022/01/15 00:52:05;;;;;;;53.22;7.85;;;4.90;99.90;;;;;;5076486;28;20472;-77
2022/01/15 00:54:31;;;;;;;41.53;7.88;;;4.80;99.90;;;;;;5076594;28;20032;-76
2022/01/15 00:56:56;;;;;;;59.50;8.75;;;4.90;99.90;;;;;;5073953;28;20028;-77
2022/01/15 00:59:22;;;;;;;51.90;7.38;;;4.90;99.90;;;;;;5075300;28;20548;-78
2022/01/15 01:01:48;;;;;;;60.72;8.43;;;4.90;99.90;;;;;;5078104;28;20028;-77
2022/01/15 01:04:13;;;;;;;50.70;7.97;;;5.00;99.90;;;;;;5091169;28;20048;-77
2022/01/15 01:06:39;;;;;;;53.97;8.27;;;5.00;99.90;;;;;;5093212;28;20290;-78
2022/01/15 01:09:04;;;;;;;51.92;7.75;;;5.10;99.90;;;;;;5077884;28;20385;-78
2022/01/15 01:11:43;;;;;;;56.20;8.02;;;5.10;99.90;;;;;;5078306;28;20029;-78
2022/01/15 01:24:47;;;;;;;50.88;7.75;;;5.40;99.90;;;;;;5079827;28;20046;-78
2022/01/15 01:27:23;;;;;;;52.92;8.40;;;5.30;99.90;;;;;;5075642;28;20031;-76
2022/01/15 01:30:37;;;;;;;47.13;6.93;;;5.30;99.90;;;;;;5076375;28;20108;-77
2022/01/15 01:33:16;;;;;;;51.80;8.35;;;5.30;99.90;;;;;;5068044;28;20083;-77
2022/01/15 01:35:45;;;;;;;48.38;8.13;;;5.30;99.90;;;;;;5075809;28;20604;-76
2022/01/15 01:38:18;;;;;;;47.13;8.10;;;5.30;99.90;;;;;;5076784;28;20438;-77
2022/01/15 01:40:48;;;;;;;52.60;7.45;;;5.40;99.90;;;;;;5076499;28;20025;-77
2022/01/15 01:45:48;;;;;;;49.50;8.13;;;5.40;99.90;;;;;;5083688;28;20031;-76
2022/01/15 01:48:14;;;;;;;55.40;7.32;;;5.40;99.90;;;;;;5091393;28;20021;-76
2022/01/15 01:50:39;;;;;;;49.88;7.60;;;5.50;99.90;;;;;;5081672;28;20054;-77
2022/01/15 01:53:05;;;;;;;46.65;8.25;;;5.40;99.90;;;;;;5085477;28;20029;-75
2022/01/15 01:55:31;;;;;;;51.65;8.00;;;5.40;99.90;;;;;;5089418;28;20043;-79
2022/01/15 01:57:58;;;;;;;62.80;7.63;;;5.50;99.90;;;;;;5093063;28;20008;-75
2022/01/15 02:00:27;;;;;;;50.38;7.28;;;5.50;99.90;;;;;;5097065;28;20019;-77
2022/01/15 02:02:54;;;;;;;60.83;8.68;;;5.50;99.90;;;;;;5096326;28;20057;-76
2022/01/15 02:05:21;;;;;;;48.72;7.35;;;5.50;99.90;;;;;;5096198;28;20036;-75
2022/01/15 02:07:50;;;;;;;62.60;8.45;;;5.50;99.90;;;;;;5096149;28;20035;-74
2022/01/15 02:10:18;;;;;;;61.90;7.97;;;5.60;99.90;;;;;;5097257;28;20011;-76
2022/01/15 02:12:46;;;;;;;51.08;7.20;;;5.50;99.90;;;;;;5097054;28;20028;-77
2022/01/15 02:15:17;;;;;;;52.58;6.97;;;5.60;99.90;;;;;;5097509;28;20047;-74
2022/01/15 02:17:45;;;;;;;54.50;7.35;;;5.60;99.90;;;;;;5097993;28;20037;-74
2022/01/15 02:25:43;;;;;;;63.65;7.30;;;5.50;99.90;;;;;;5080592;28;20081;-79
2022/01/15 02:28:09;;;;;;;54.55;7.75;;;5.60;99.90;;;;;;5092394;28;20025;-75
2022/01/15 02:30:35;;;;;;;53.22;7.95;;;5.60;99.90;;;;;;5095168;28;20035;-75
2022/01/15 02:33:00;;;;;;;58.13;7.60;;;5.60;99.90;;;;;;5089168;28;20021;-77
2022/01/15 02:35:26;;;;;;;53.13;7.40;;;5.60;99.90;;;;;;5086833;28;20719;-78
2022/01/15 02:37:52;;;;;;;55.47;7.45;;;5.60;99.90;;;;;;5084188;28;20032;-78
2022/01/15 02:40:17;;;;;;;51.67;6.70;;;5.50;99.90;;;;;;5080175;28;20357;-77
2022/01/15 02:42:44;;;;;;;55.60;6.70;;;5.60;99.90;;;;;;5085317;28;20455;-77
2022/01/15 02:45:11;;;;;;;54.25;7.15;;;5.60;99.90;;;;;;5084367;28;20392;-76
2022/01/15 02:50:22;;;;;;;44.45;6.45;;;5.60;99.90;;;;;;5085091;28;20439;-78
2022/01/15 02:52:48;;;;;;;42.33;6.45;;;5.60;99.90;;;;;;5087296;28;20036;-79
2022/01/15 02:55:14;;;;;;;56.05;7.72;;;5.60;99.90;;;;;;5081941;28;20027;-79
2022/01/15 02:57:39;;;;;;;49.17;8.15;;;5.60;99.90;;;;;;5081185;28;20036;-79
2022/01/15 03:00:06;;;;;;;49.70;6.82;;;5.60;99.90;;;;;;5081476;28;20091;-78
2022/01/15 03:02:33;;;;;;;45.30;6.72;;;5.60;99.90;;;;;;5081488;28;20043;-78
2022/01/15 03:04:59;;;;;;;46.05;6.60;;;5.60;99.90;;;;;;5083930;28;20009;-79
2022/01/15 03:07:25;;;;;;;45.70;6.75;;;5.60;99.90;;;;;;5082335;28;20370;-79
2022/01/15 03:09:51;;;;;;;49.58;6.57;;;5.60;99.90;;;;;;5088692;28;20051;-79
2022/01/15 03:12:17;;;;;;;50.78;7.05;;;5.60;99.90;;;;;;5082088;28;20024;-79
2022/01/15 03:14:45;;;;;;;42.33;6.53;;;5.60;99.90;;;;;;5080827;28;20020;-78
2022/01/15 03:17:11;;;;;;;44.03;6.15;;;5.60;99.90;;;;;;5079194;28;20115;-78
2022/01/15 03:19:36;;;;;;;51.05;7.90;;;5.60;99.90;;;;;;5084353;28;20036;-78
2022/01/15 03:22:03;;;;;;;44.40;6.63;;;5.60;99.90;;;;;;5089725;28;20048;-76
2022/01/15 03:24:29;;;;;;;48.25;6.47;;;5.60;99.90;;;;;;5080458;28;20040;-78
2022/01/15 03:26:54;;;;;;;42.55;7.43;;;5.60;99.90;;;;;;5077966;28;20036;-78
2022/01/15 03:29:20;;;;;;;49.90;7.43;;;5.60;99.90;;;;;;5079364;28;20169;-77
2022/01/15 03:31:45;;;;;;;49.13;7.07;;;5.70;99.90;;;;;;5080149;28;20029;-75
2022/01/15 03:34:11;;;;;;;56.78;7.90;;;5.60;99.90;;;;;;5097359;28;20042;-79
2022/01/15 03:36:36;;;;;;;47.67;6.72;;;5.60;99.90;;;;;;5083295;28;20058;-78
2022/01/15 03:39:02;;;;;;;53.33;7.70;;;5.60;99.90;;;;;;5096037;28;20090;-75
2022/01/15 03:41:28;;;;;;;47.78;6.53;;;5.60;99.90;;;;;;5086446;28;20034;-78
2022/01/15 03:43:53;;;;;;;60.97;7.60;;;5.60;99.90;;;;;;5089488;28;20020;-78
2022/01/15 03:46:21;;;;;;;48.75;7.22;;;5.60;99.90;;;;;;5090861;28;20033;-79
2022/01/15 03:48:48;;;;;;;60.08;7.72;;;5.60;99.90;;;;;;5095059;28;20031;-76
2022/01/15 03:51:17;;;;;;;51.50;6.95;;;5.60;99.90;;;;;;5094000;28;20013;-76
2022/01/15 03:53:43;;;;;;;49.03;6.75;;;5.60;99.90;;;;;;5098522;28;20016;-76
2022/01/15 03:56:08;;;;;;;54.92;6.97;;;5.60;99.90;;;;;;5093495;28;20029;-77
2022/01/15 03:58:34;;;;;;;48.65;7.30;;;5.60;99.90;;;;;;5091430;28;20153;-78
2022/01/15 04:00:59;;;;;;;49.08;7.95;;;5.60;99.90;;;;;;5096918;28;20042;-76
2022/01/15 04:03:25;;;;;;;57.75;7.32;;;5.60;99.90;;;;;;5089862;28;20033;-78
2022/01/15 04:05:51;;;;;;;47.03;6.78;;;5.60;99.90;;;;;;5076604;28;20017;-76
2022/01/15 04:08:17;;;;;;;50.92;6.43;;;5.60;99.90;;;;;;5074010;28;20044;-76
2022/01/15 04:10:42;;;;;;;51.72;7.88;;;5.60;99.90;;;;;;5086613;28;20072;-74
2022/01/15 04:13:08;;;;;;;40.75;6.97;;;5.60;99.90;;;;;;5096116;28;20057;-76
2022/01/15 04:15:35;;;;;;;56.72;7.25;;;5.50;99.90;;;;;;5078616;28;20098;-75
2022/01/15 04:18:01;;;;;;;64.03;8.20;;;5.50;99.90;;;;;;5076147;28;20020;-74
2022/01/15 04:20:27;;;;;;;43.67;6.93;;;5.50;99.90;;;;;;5080476;28;20551;-75
2022/01/15 04:22:53;;;;;;;44.45;6.70;;;5.50;99.90;;;;;;5081048;28;20047;-76
2022/01/15 04:25:19;;;;;;;45.72;6.35;;;5.50;99.90;;;;;;5074746;28;20048;-76
2022/01/15 04:27:46;;;;;;;45.75;6.00;;;5.50;99.90;;;;;;5074601;28;20515;-76
2022/01/15 04:30:14;;;;;;;47.25;7.47;;;5.40;99.90;;;;;;5073961;28;20024;-76
2022/01/15 04:32:41;;;;;;;50.20;6.85;;;5.50;99.90;;;;;;5077484;28;20028;-77
2022/01/15 04:35:07;;;;;;;59.58;8.25;;;5.40;99.90;;;;;;5085609;28;20024;-77
2022/01/15 04:37:40;;;;;;;57.63;6.60;;;5.40;99.90;;;;;;5074565;28;20028;-76
2022/01/15 04:40:08;;;;;;;43.47;6.10;;;5.40;99.90;;;;;;5074916;28;20391;-76
2022/01/15 04:42:33;;;;;;;46.42;6.53;;;5.40;99.90;;;;;;5074300;28;20025;-76
2022/01/15 04:45:01;;;;;;;55.30;7.70;;;5.40;99.90;;;;;;5074152;28;20020;-77
2022/01/15 04:47:26;;;;;;;58.05;7.03;;;5.40;99.90;;;;;;5074092;28;20025;-77
2022/01/15 04:49:54;;;;;;;45.58;6.90;;;5.30;99.90;;;;;;5074251;28;20111;-76
2022/01/15 04:52:23;;;;;;;44.88;6.80;;;5.40;99.90;;;;;;5074440;28;20032;-76
2022/01/15 04:54:50;;;;;;;49.85;6.97;;;5.30;99.90;;;;;;5074014;28;20028;-76
2022/01/15 04:57:15;;;;;;;52.38;6.72;;;5.30;99.90;;;;;;5073683;28;20101;-76
2022/01/15 04:59:41;;;;;;;48.17;6.53;;;5.30;99.90;;;;;;5073980;28;20056;-75
2022/01/15 05:02:06;;;;;;;46.72;6.68;;;5.30;99.90;;;;;;5073918;28;20484;-75
2022/01/15 05:04:32;;;;;;;46.85;6.72;;;5.30;99.90;;;;;;5073687;28;20386;-75
2022/01/15 05:06:57;;;;;;;51.05;8.00;;;5.40;99.90;;;;;;5073213;28;20028;-76
2022/01/15 05:09:23;;;;;;;43.95;7.30;;;5.40;99.90;;;;;;5073649;28;20104;-76
2022/01/15 05:11:59;;;;;;;54.53;7.53;;;5.40;99.90;;;;;;5072084;28;20035;-76
2022/01/15 05:14:25;;;;;;;46.92;7.38;;;5.40;99.90;;;;;;5073235;28;20020;-76
2022/01/15 05:16:50;;;;;;;47.45;7.25;;;5.40;99.90;;;;;;5073237;28;20473;-76
2022/01/15 05:19:16;;;;;;;49.40;6.60;;;5.50;99.90;;;;;;5073726;28;20028;-76
2022/01/15 05:21:42;;;;;;;59.22;7.55;;;5.40;99.90;;;;;;5073595;28;20090;-76
2022/01/15 05:24:07;;;;;;;49.72;7.10;;;5.40;99.90;;;;;;5072566;28;20027;-76
2022/01/15 05:26:33;;;;;;;53.00;7.53;;;5.40;99.90;;;;;;5073592;28;20812;-75
2022/01/15 05:29:00;;;;;;;48.90;7.85;;;5.40;99.90;;;;;;5074025;28;20036;-75
2022/01/15 05:31:25;;;;;;;43.97;7.22;;;5.40;99.90;;;;;;5074328;28;20052;-76
2022/01/15 05:33:52;;;;;;;44.40;6.57;;;5.40;99.90;;;;;;5085077;28;20027;-75
2022/01/15 05:36:17;;;;;;;39.65;6.25;;;5.30;99.90;;;;;;5092648;28;20039;-75
2022/01/15 05:38:43;;;;;;;47.05;6.75;;;5.40;99.90;;;;;;5097347;28;20017;-76
2022/01/15 05:41:09;;;;;;;58.28;6.93;;;5.40;99.90;;;;;;5097905;28;20020;-76
2022/01/15 05:43:34;;;;;;;50.20;6.82;;;5.30;99.90;;;;;;5096664;28;20060;-74
2022/01/15 05:46:00;;;;;;;41.92;6.93;;;5.40;99.90;;;;;;5093122;28;20024;-76
2022/01/15 05:48:25;;;;;;;49.88;7.03;;;5.40;99.90;;;;;;5094080;28;20037;-77
2022/01/15 05:50:51;;;;;;;44.85;7.32;;;5.40;99.90;;;;;;5075492;28;20419;-77
2022/01/15 05:53:17;;;;;;;38.83;6.20;;;5.40;99.90;;;;;;5076237;28;20033;-76
2022/01/15 05:55:42;;;;;;;45.47;6.00;;;5.40;99.90;;;;;;5075920;28;20077;-77
2022/01/15 05:58:08;;;;;;;40.22;6.75;;;5.40;99.90;;;;;;5074928;28;20021;-76
2022/01/15 06:00:34;;;;;;;41.78;6.53;;;5.40;99.90;;;;;;5073607;28;20126;-76
2022/01/15 06:03:00;;;;;;;44.03;6.72;;;5.40;99.90;;;;;;5075645;28;20031;-75
2022/01/15 06:05:26;;;;;;;33.25;6.20;;;5.40;99.90;;;;;;5076876;28;20032;-75
2022/01/15 06:07:51;;;;;;;44.88;8.35;;;5.30;99.90;;;;;;5078781;28;20060;-76
2022/01/15 06:10:17;;;;;;;39.50;6.97;;;5.40;99.90;;;;;;5072625;28;20107;-76
2022/01/15 06:12:44;;;;;;;46.95;8.98;;;5.30;99.90;;;;;;5072422;28;20021;-75
2022/01/15 06:15:12;;;;;;;43.80;7.78;;;5.40;99.90;;;;;;5072204;28;20031;-75
2022/01/15 06:17:37;;;;;;;30.33;6.95;;;5.40;99.90;;;;;;5071902;28;20543;-77
2022/01/15 06:20:04;;;;;;;39.78;7.10;;;5.40;99.90;;;;;;5072662;28;20027;-75
2022/01/15 06:22:30;;;;;;;39.13;7.90;;;5.50;99.90;;;;;;5072878;28;20036;-77
2022/01/15 06:24:55;;;;;;;39.53;8.10;;;5.40;99.90;;;;;;5073583;28;20028;-76
2022/01/15 06:27:21;;;;;;;49.10;8.57;;;5.50;99.90;;;;;;5076911;28;20066;-76
2022/01/15 06:29:46;;;;;;;45.63;8.50;;;5.40;99.90;;;;;;5077681;28;20103;-77
2022/01/15 06:32:12;;;;;;;42.97;8.50;;;5.40;99.90;;;;;;5076564;28;20025;-77
2022/01/15 06:34:39;;;;;;;43.08;8.27;;;5.40;99.90;;;;;;5077397;28;20094;-77
2022/01/15 06:37:05;;;;;;;57.45;10.63;;;5.40;99.90;;;;;;5076825;28;20119;-75
2022/01/15 06:39:33;;;;;;;46.42;8.98;;;5.40;99.90;;;;;;5082321;28;20370;-76
2022/01/15 06:41:59;;;;;;;35.30;8.85;;;5.40;99.90;;;;;;5078611;28;20020;-76
2022/01/15 06:44:24;;;;;;;45.80;8.82;;;5.40;99.90;;;;;;5080030;28;20388;-76
2022/01/15 06:46:50;;;;;;;44.55;8.73;;;5.40;99.90;;;;;;5079593;28;20036;-77
2022/01/15 06:49:15;;;;;;;44.42;9.25;;;5.40;99.90;;;;;;5100155;28;20025;-75
2022/01/15 06:51:41;;;;;;;53.05;13.15;;;5.40;99.90;;;;;;5100740;28;20029;-75
2022/01/15 06:54:07;;;;;;;43.03;10.40;;;5.40;99.90;;;;;;5101464;28;20023;-75
2022/01/15 06:56:32;;;;;;;44.88;9.93;;;5.40;99.90;;;;;;5100414;28;20024;-75
2022/01/15 06:58:59;;;;;;;41.63;10.18;;;5.40;99.90;;;;;;5101848;28;20033;-76
2022/01/15 07:01:24;;;;;;;31.45;8.73;;;5.40;99.90;;;;;;5101794;28;20009;-76
2022/01/15 07:03:50;;;;;;;33.75;10.07;;;5.40;99.90;;;;;;5100876;28;20027;-76
2022/01/15 07:06:15;;;;;;;43.97;9.73;;;5.30;99.90;;;;;;5096439;28;20096;-75
2022/01/15 07:08:41;;;;;;;44.42;10.93;;;5.40;99.90;;;;;;5100412;28;20021;-75
2022/01/15 07:11:06;;;;;;;44.67;10.95;;;5.30;99.90;;;;;;5095150;28;20111;-76
2022/01/15 07:13:33;;;;;;;41.60;10.93;;;5.30;99.90;;;;;;5081256;28;20020;-77
2022/01/15 07:15:59;;;;;;;44.53;12.07;;;5.30;99.90;;;;;;5079758;28;20036;-77
2022/01/15 07:18:25;;;;;;;46.45;12.48;;;5.30;99.90;;;;;;5081096;28;20017;-77
2022/01/15 07:20:53;;;;;;;44.40;13.15;;;5.30;99.90;;;;;;5079032;28;20089;-77
2022/01/15 07:23:19;;;;;;;49.13;13.85;;;5.20;99.90;;;;;;5078060;28;20024;-76
2022/01/15 07:25:45;;;;;;;39.22;12.50;;;5.20;99.90;;;;;;5077575;28;20412;-77
2022/01/15 07:28:12;;;;;;;40.67;13.00;;;5.20;99.90;;;;;;5085549;28;20024;-77
2022/01/15 07:30:38;;;;;;;43.95;12.50;;;5.20;99.90;;;;;;5084267;28;20020;-76
2022/01/15 07:33:04;;;;;;;42.13;12.88;;;5.20;99.90;;;;;;5080053;28;20099;-76
2022/01/15 07:35:29;;;;;;;43.70;13.68;;;5.00;99.90;;;;;;5077525;28;20446;-76
2022/01/15 07:37:56;;;;;;;39.92;12.20;;;5.00;99.90;;;;;;5077633;28;20021;-76
2022/01/15 07:40:21;;;;;;;39.22;12.05;;;5.00;99.90;;;;;;5077607;28;20025;-75
2022/01/15 07:42:47;;;;;;;39.95;11.55;;;5.00;99.90;;;;;;5076923;28;20023;-75
2022/01/15 07:45:16;;;;;;;36.78;11.15;;;5.00;99.90;;;;;;5076735;28;20444;-77
2022/01/15 07:47:42;;;;;;;40.60;13.20;;;5.10;99.90;;;;;;5076118;28;20082;-75
2022/01/15 07:50:14;;;;;;;37.28;12.52;;;5.00;99.90;;;;;;5074612;28;20040;-76
2022/01/15 07:52:40;;;;;;;32.00;11.02;;;5.10;99.90;;;;;;5075709;28;20044;-77
2022/01/15 07:55:06;;;;;;;46.28;12.93;;;5.10;99.90;;;;;;5074644;28;20028;-76
2022/01/15 07:57:32;;;;;;;37.55;12.13;;;5.10;99.90;;;;;;5074415;28;20029;-76
2022/01/15 07:59:57;;;;;;;37.53;12.05;;;5.10;99.90;;;;;;5074493;28;20447;-77
2022/01/15 08:02:23;;;;;;;42.75;12.20;;;5.10;99.90;;;;;;5076061;28;20025;-76
2022/01/15 08:04:49;;;;;;;40.08;12.43;;;5.10;99.90;;;;;;5075615;28;20047;-76
2022/01/15 08:07:14;;;;;;;33.30;10.80;;;5.10;99.90;;;;;;5075791;28;20029;-75
2022/01/15 08:09:40;;;;;;;31.83;11.15;;;5.20;99.90;;;;;;5076128;28;20033;-76
2022/01/15 08:12:06;;;;;;;36.92;11.57;;;5.20;99.90;;;;;;5074593;28;20048;-76
2022/01/15 08:14:31;;;;;;;44.63;11.90;;;5.20;99.90;;;;;;5075589;28;20029;-74
2022/01/15 08:16:57;;;;;;;39.53;12.05;;;5.30;99.90;;;;;;5075586;28;20043;-77
2022/01/15 08:19:23;;;;;;;34.50;10.48;;;5.30;99.90;;;;;;5075365;28;20492;-76
2022/01/15 08:21:49;;;;;;;37.88;11.13;;;5.30;99.90;;;;;;5075369;28;20074;-76
2022/01/15 08:24:14;;;;;;;35.40;11.85;;;5.40;99.90;;;;;;5074334;28;20161;-76
2022/01/15 08:26:40;;;;;;;42.05;11.80;;;5.40;99.90;;;;;;5075510;28;20103;-76
2022/01/15 08:29:05;;;;;;;38.88;11.63;;;5.40;99.90;;;;;;5075631;28;20469;-78
2022/01/15 08:31:31;;;;;;;39.03;11.40;;;5.50;99.90;;;;;;5075320;28;20104;-76
2022/01/15 08:33:57;;;;;;;30.92;10.77;;;5.60;99.90;;;;;;5074820;28;20036;-76
2022/01/15 08:36:22;;;;;;;34.55;11.82;;;5.70;99.90;;;;;;5074627;28;20027;-76
2022/01/15 08:38:49;;;;;;;33.38;11.15;;;5.80;99.90;;;;;;5075082;28;20025;-76
2022/01/15 08:41:14;;;;;;;39.13;11.95;;;5.90;99.90;;;;;;5078378;28;20094;-78
2022/01/15 08:43:41;;;;;;;28.98;11.15;;;5.90;99.90;;;;;;5078623;28;20032;-76
2022/01/15 08:46:07;;;;;;;30.42;10.15;;;5.90;99.90;;;;;;5076673;28;20436;-75
2022/01/15 08:48:33;;;;;;;34.45;10.88;;;6.00;99.90;;;;;;5074493;28;20032;-75
2022/01/15 08:50:58;;;;;;;35.65;12.32;;;6.30;99.90;;;;;;5078782;28;20025;-75
2022/01/15 08:53:24;;;;;;;34.47;11.35;;;6.30;99.90;;;;;;5087436;28;20039;-75
2022/01/15 08:55:50;;;;;;;29.17;10.63;;;6.30;99.90;;;;;;5078491;28;20098;-76
2022/01/15 08:58:15;;;;;;;29.92;11.00;;;6.30;99.90;;;;;;5079745;28;20012;-76
2022/01/15 09:00:41;;;;;;;37.53;10.73;;;6.30;99.90;;;;;;5094789;28;20020;-76
2022/01/15 09:03:07;;;;;;;36.60;11.63;;;6.40;99.90;;;;;;5096701;28;20048;-74
2022/01/15 09:05:36;;;;;;;31.05;11.55;;;6.40;99.90;;;;;;5090161;28;20013;-76
2022/01/15 09:08:04;;;;;;;32.03;11.25;;;6.40;99.90;;;;;;5075850;28;20466;-75
2022/01/15 09:10:30;;;;;;;48.58;19.50;;;6.50;99.90;;;;;;5074317;28;20135;-76
2022/01/15 09:12:55;;;;;;;31.20;11.63;;;6.60;99.90;;;;;;5074487;28;20016;-75
2022/01/15 09:15:21;;;;;;;34.22;11.02;;;6.70;99.90;;;;;;5075177;28;20098;-76
2022/01/15 09:17:47;;;;;;;32.70;10.68;;;6.90;99.90;;;;;;5073133;28;20032;-76
2022/01/15 09:20:13;;;;;;;28.08;11.15;;;7.10;99.90;;;;;;5073041;28;20511;-76
2022/01/15 09:22:39;;;;;;;29.08;10.05;;;7.40;99.90;;;;;;5074274;28;20097;-76
2022/01/15 09:25:05;;;;;;;30.60;10.55;;;7.60;99.90;;;;;;5075914;28;20496;-76
2022/01/15 09:30:16;;;;;;;25.77;11.25;;;8.00;99.90;;;;;;5076612;28;20028;-77
2022/01/15 09:32:53;;;;;;;41.67;16.67;;;8.20;99.90;;;;;;5075854;28;20419;-76
2022/01/15 09:35:22;;;;;;;32.58;12.55;;;8.30;99.90;;;;;;5082277;28;20103;-75
2022/01/15 09:37:49;;;;;;;34.83;11.50;;;8.40;99.90;;;;;;5079499;28;20029;-77
2022/01/15 09:40:15;;;;;;;32.58;10.52;;;8.40;99.90;;;;;;5075327;28;20013;-76
2022/01/15 09:42:44;;;;;;;39.75;10.50;;;8.40;99.90;;;;;;5075268;28;20059;-75
2022/01/15 09:45:11;;;;;;;33.63;11.00;;;8.30;99.90;;;;;;5075917;28;20017;-75
2022/01/15 09:47:37;;;;;;;32.13;10.48;;;8.30;99.90;;;;;;5079440;28;20170;-76
2022/01/15 09:50:10;;;;;;;37.72;10.65;;;8.40;99.90;;;;;;5080509;28;20024;-76
2022/01/15 09:52:36;;;;;;;28.20;9.13;;;8.40;99.90;;;;;;5079156;28;20035;-78
2022/01/15 09:55:05;;;;;;;32.30;10.40;;;8.30;99.90;;;;;;5076584;28;20024;-75
2022/01/15 09:57:30;;;;;;;24.77;8.93;;;8.30;99.90;;;;;;5071701;28;20051;-75
2022/01/15 09:59:56;;;;;;;28.02;10.52;;;8.30;99.90;;;;;;5072994;28;20393;-75
2022/01/15 10:02:22;;;;;;;33.53;9.98;;;8.10;99.90;;;;;;5073302;28;20107;-75
2022/01/15 10:04:47;;;;;;;31.85;9.55;;;8.10;99.90;;;;;;5073970;28;20081;-76
2022/01/15 10:07:22;;;;;;;30.17;9.70;;;8.10;99.90;;;;;;5073787;28;20028;-75
2022/01/15 10:09:50;;;;;;;27.30;9.30;;;8.10;99.90;;;;;;5073832;28;20067;-76
2022/01/15 10:12:29;;;;;;;28.45;9.60;;;8.20;99.90;;;;;;5073394;28;20020;-76
2022/01/15 10:15:05;;;;;;;38.67;11.18;;;8.20;99.90;;;;;;5073651;28;20031;-75
2022/01/15 10:17:33;;;;;;;29.08;10.32;;;8.30;99.90;;;;;;5071946;28;20028;-74
2022/01/15 10:20:03;;;;;;;29.20;9.05;;;8.20;99.90;;;;;;5073594;28;20071;-75
2022/01/15 10:22:32;;;;;;;29.23;9.32;;;8.30;99.90;;;;;;5073896;28;20027;-75
2022/01/15 10:24:59;;;;;;;28.70;9.82;;;8.30;99.90;;;;;;5073470;28;20070;-76
2022/01/15 10:27:35;;;;;;;37.85;9.38;;;8.20;99.90;;;;;;5073554;28;20028;-77
2022/01/15 10:30:16;;;;;;;31.23;9.30;;;8.20;99.90;;;;;;5073309;28;20028;-75
2022/01/15 10:33:06;;;;;;;38.80;12.10;;;8.10;99.90;;;;;;5074103;28;20024;-74
2022/01/15 10:35:35;;;;;;;34.85;10.00;;;8.20;99.90;;;;;;5075537;28;20025;-75
2022/01/15 10:38:13;;;;;;;31.58;10.40;;;8.30;99.90;;;;;;5073997;28;20024;-75
2022/01/15 10:40:42;;;;;;;44.47;17.70;;;8.40;99.90;;;;;;5074900;28;20520;-74
2022/01/15 10:43:09;;;;;;;36.20;10.93;;;8.50;99.90;;;;;;5074098;28;20043;-75
2022/01/15 10:45:48;;;;;;;28.33;8.57;;;8.70;99.90;;;;;;5073664;28;20106;-74
2022/01/15 10:48:22;;;;;;;39.20;9.82;;;8.90;99.90;;;;;;5073591;28;20081;-76
2022/01/15 10:50:57;;;;;;;60.03;25.00;;;9.10;99.90;;;;;;5074217;28;20025;-74
2022/01/15 10:53:33;;;;;;;33.63;8.85;;;9.30;99.90;;;;;;5074469;28;20033;-76
2022/01/15 10:55:59;;;;;;;27.88;7.78;;;9.20;99.90;;;;;;5073906;28;20483;-76
2022/01/15 10:58:25;;;;;;;24.58;8.02;;;9.20;99.90;;;;;;5076172;28;20052;-76
2022/01/15 11:00:52;;;;;;;27.15;7.78;;;9.30;99.90;;;;;;5075802;28;20044;-75
2022/01/15 11:03:19;;;;;;;31.20;8.32;;;9.40;99.90;;;;;;5073701;28;20032;-76
2022/01/15 11:05:49;;;;;;;44.85;10.15;;;9.30;99.90;;;;;;5073889;28;20012;-76
2022/01/15 11:08:18;;;;;;;34.00;8.57;;;9.40;99.90;;;;;;5077151;28;20021;-77
2022/01/15 11:10:52;;;;;;;42.42;9.75;;;9.60;99.90;;;;;;5076898;28;20020;-75
2022/01/15 11:13:24;;;;;;;40.15;10.45;;;9.70;99.90;;;;;;5077770;28;20088;-76
2022/01/15 11:15:54;;;;;;;39.25;8.52;;;9.90;99.90;;;;;;5060923;28;20047;-76
2022/01/15 11:18:26;;;;;;;37.97;7.13;;;10.10;99.90;;;;;;5089886;28;20016;-77
2022/01/15 11:20:55;;;;;;;32.75;7.57;;;10.10;99.90;;;;;;5079370;28;20381;-78
2022/01/15 11:23:21;;;;;;;28.10;7.07;;;10.10;99.90;;;;;;5077382;28;20056;-76
2022/01/15 11:25:49;;;;;;;31.38;7.63;;;10.00;99.90;;;;;;5078125;28;20074;-76
2022/01/15 11:28:17;;;;;;;27.77;7.32;;;10.10;99.90;;;;;;5078855;28;20036;-75
2022/01/15 11:30:45;;;;;;;37.47;8.05;;;10.00;99.90;;;;;;5077773;28;20021;-76
2022/01/15 11:33:12;;;;;;;35.42;8.50;;;10.00;99.90;;;;;;5082100;28;20087;-75
2022/01/15 11:35:40;;;;;;;43.40;10.30;;;10.10;99.90;;;;;;5082288;28;20028;-74
2022/01/15 11:38:07;;;;;;;46.95;9.63;;;10.10;99.90;;;;;;5079618;28;20584;-76
2022/01/15 11:40:46;;;;;;;49.63;10.25;;;10.20;99.90;;;;;;5076535;28;20057;-76
2022/01/15 11:43:24;;;;;;;37.05;8.23;;;10.20;99.90;;;;;;5076501;28;20024;-75
2022/01/15 11:45:55;;;;;;;41.67;8.00;;;10.20;99.90;;;;;;5077923;28;20116;-75
2022/01/15 11:48:35;;;;;;;43.38;8.23;;;10.30;99.90;;;;;;5079161;28;20097;-76
2022/01/15 11:51:17;;;;;;;42.53;11.18;;;10.40;99.90;;;;;;5078482;28;20742;-76
2022/01/15 11:53:53;;;;;;;43.30;9.68;;;10.50;99.90;;;;;;5078051;28;20112;-75
2022/01/15 11:56:24;;;;;;;40.67;8.48;;;10.60;99.90;;;;;;5075311;28;20112;-75
2022/01/15 11:58:52;;;;;;;47.42;7.10;;;10.60;99.90;;;;;;5076132;28;20495;-77
2022/01/15 12:01:39;;;;;;;52.00;12.63;;;10.60;99.90;;;;;;5074219;28;20020;-75
2022/01/15 12:04:28;;;;;;;45.45;6.38;;;10.90;99.90;;;;;;5074907;28;20393;-76
2022/01/15 12:07:05;;;;;;;22.45;5.65;;;11.60;99.90;;;;;;5076293;28;20032;-76
2022/01/15 12:09:32;;;;;;;32.72;6.70;;;12.60;99.90;;;;;;5095067;28;20025;-76
2022/01/15 12:11:58;;;;;;;29.88;7.20;;;13.70;99.90;;;;;;5095733;28;20031;-77
2022/01/15 12:14:53;;;;;;;44.40;9.52;;;15.30;99.90;;;;;;5077493;28;20358;-77
2022/01/15 12:17:32;;;;;;;41.25;7.57;;;15.70;99.90;;;;;;5077065;28;20100;-75
2022/01/15 12:20:26;;;;;;;33.92;6.88;;;16.00;99.90;;;;;;5083388;28;20028;-75
2022/01/15 12:22:57;;;;;;;32.75;7.97;;;16.30;99.90;;;;;;5079792;28;20025;-77
2022/01/15 12:25:25;;;;;;;60.80;20.90;;;17.10;99.90;;;;;;5073219;28;20028;-76
2022/01/15 12:27:56;;;;;;;74.95;27.08;;;17.80;98.90;;;;;;5074898;28;20428;-76
2022/01/15 12:30:28;;;;;;;42.75;11.75;;;17.80;97.90;;;;;;5074408;28;20024;-76
2022/01/15 12:32:56;;;;;;;40.63;9.00;;;18.70;94.60;;;;;;5074160;28;20024;-76
2022/01/15 12:35:24;;;;;;;24.85;6.25;;;19.20;91.00;;;;;;5073027;28;20060;-75
2022/01/15 12:38:15;;;;;;;37.45;8.13;;;19.80;85.40;;;;;;5073988;28;20366;-76
2022/01/15 12:40:42;;;;;;;29.63;6.15;;;20.40;75.90;;;;;;5073808;28;20524;-76
2022/01/15 12:43:25;;;;;;;44.17;15.20;;;20.40;71.20;;;;;;5074313;28;20031;-75
2022/01/15 12:45:56;;;;;;;69.75;35.65;;;20.20;71.60;;;;;;5074632;28;20029;-76
2022/01/15 12:48:27;;;;;;;31.27;7.00;;;;;;;;;;5074935;28;20034;-76
2022/01/15 12:50:56;;;;;;;32.55;6.68;;;21.40;65.00;;;;;;5074354;28;20028;-75
2022/01/15 12:53:25;;;;;;;40.22;6.55;;;21.60;63.40;;;;;;5073790;28;20127;-76
2022/01/15 12:55:52;;;;;;;31.80;7.25;;;22.10;60.70;;;;;;5072761;28;20021;-76
2022/01/15 12:58:22;;;;;;;33.47;6.63;;;22.30;58.90;;;;;;5074109;28;20048;-76
2022/01/15 13:00:48;;;;;;;32.92;6.13;;;22.40;57.80;;;;;;5073564;28;20100;-76
2022/01/15 13:03:18;;;;;;;31.27;6.03;;;22.30;55.70;;;;;;5073503;28;20085;-76
2022/01/15 13:05:49;;;;;;;32.17;6.35;;;21.20;56.20;;;;;;5072491;28;20493;-76
2022/01/15 13:08:16;;;;;;;31.88;6.75;;;21.40;57.40;;;;;;5073634;28;20549;-76
2022/01/15 13:10:53;;;;;;;29.20;6.20;;;21.40;57.30;;;;;;5074119;28;20060;-77